sensor_id;sensor_type;location;lat;lon;timestamp;P1;durP1;ratioP1;P2;durP2;ratioP2
61527;SDS011;47395;42.032;-8.634;2023-07-20T00:00:26;13.07;;;5.38;;
61527;SDS011;47395;42.032;-8.634;2023-07-20T00:02:27;6.07;;;5.47;;
61527;SDS011;47395;42.032;-8.634;2023-07-20T00:04:28;8.18;;;5.93;;
61527;SDS011;47395;42.032;-8.634;2023-07-20T00:06:29;7.68;;;5.28;;
61527;SDS011;47395;42.032;-8.634;2023-07-20T00:08:30;8.02;;;5.55;;
61527;SDS011;47395;42.032;-8.634;2023-07-20T00:10:31;11.57;;;5.18;;
61527;SDS011;47395;42.032;-8.634;2023-07-20T00:12:32;5.88;;;5.20;;
61527;SDS011;47395;42.032;-8.634;2023-07-20T00:14:32;7.90;;;5.20;;
61527;SDS011;47395;42.032;-8.634;2023-07-20T00:16:33;7.00;;;5.55;;
61527;SDS011;47395;42.032;-8.634;2023-07-20T00:18:34;6.03;;;4.88;;
61527;SDS011;47395;42.032;-8.634;2023-07-20T00:20:35;5.85;;;4.97;;
61527;SDS011;47395;42.032;-8.634;2023-07-20T00:22:36;5.90;;;5.05;;
61527;SDS011;47395;42.032;-8.634;2023-07-20T00:24:37;5.60;;;5.10;;
61527;SDS011;47395;42.032;-8.634;2023-07-20T00:26:37;9.65;;;5.50;;
61527;SDS011;47395;42.032;-8.634;2023-07-20T00:28:38;8.50;;;5.32;;
61527;SDS011;47395;42.032;-8.634;2023-07-20T00:30:39;6.28;;;5.68;;
61527;SDS011;47395;42.032;-8.634;2023-07-20T00:32:41;11.75;;;5.57;;
61527;SDS011;47395;42.032;-8.634;2023-07-20T00:34:42;5.90;;;5.22;;
61527;SDS011;47395;42.032;-8.634;2023-07-20T00:36:43;6.47;;;5.70;;
61527;SDS011;47395;42.032;-8.634;2023-07-20T00:38:45;7.63;;;5.93;;
61527;SDS011;47395;42.032;-8.634;2023-07-20T00:40:47;7.90;;;5.50;;
61527;SDS011;47395;42.032;-8.634;2023-07-20T00:42:51;9.32;;;6.10;;
61527;SDS011;47395;42.032;-8.634;2023-07-20T00:44:57;9.63;;;5.65;;
61527;SDS011;47395;42.032;-8.634;2023-07-20T00:46:58;5.78;;;5.20;;
61527;SDS011;47395;42.032;-8.634;2023-07-20T00:49:00;7.38;;;5.97;;
61527;SDS011;47395;42.032;-8.634;2023-07-20T00:51:01;7.13;;;5.28;;
61527;SDS011;47395;42.032;-8.634;2023-07-20T00:53:02;8.93;;;5.57;;
61527;SDS011;47395;42.032;-8.634;2023-07-20T00:55:07;6.63;;;5.80;;
61527;SDS011;47395;42.032;-8.634;2023-07-20T00:57:09;6.60;;;5.85;;
61527;SDS011;47395;42.032;-8.634;2023-07-20T00:59:13;5.93;;;5.43;;
61527;SDS011;47395;42.032;-8.634;2023-07-20T01:01:15;7.28;;;5.75;;
61527;SDS011;47395;42.032;-8.634;2023-07-20T01:03:18;8.30;;;5.60;;
61527;SDS011;47395;42.032;-8.634;2023-07-20T01:05:20;11.05;;;5.47;;
61527;SDS011;47395;42.032;-8.634;2023-07-20T01:07:25;10.60;;;5.57;;
61527;SDS011;47395;42.032;-8.634;2023-07-20T01:09:36;10.80;;;5.90;;
61527;SDS011;47395;42.032;-8.634;2023-07-20T01:14:36;6.82;;;5.25;;
61527;SDS011;47395;42.032;-8.634;2023-07-20T01:16:39;5.40;;;4.90;;
61527;SDS011;47395;42.032;-8.634;2023-07-20T01:18:40;8.35;;;5.88;;
61527;SDS011;47395;42.032;-8.634;2023-07-20T01:20:41;7.70;;;5.95;;
61527;SDS011;47395;42.032;-8.634;2023-07-20T01:22:47;9.00;;;5.90;;
61527;SDS011;47395;42.032;-8.634;2023-07-20T01:28:19;7.57;;;6.88;;
61527;SDS011;47395;42.032;-8.634;2023-07-20T01:31:15;10.90;;;6.18;;
61527;SDS011;47395;42.032;-8.634;2023-07-20T01:33:18;12.63;;;6.22;;
61527;SDS011;47395;42.032;-8.634;2023-07-20T01:35:23;7.65;;;6.43;;
61527;SDS011;47395;42.032;-8.634;2023-07-20T01:37:27;8.80;;;5.90;;
61527;SDS011;47395;42.032;-8.634;2023-07-20T01:39:31;9.48;;;5.97;;
61527;SDS011;47395;42.032;-8.634;2023-07-20T01:41:33;6.85;;;6.25;;
61527;SDS011;47395;42.032;-8.634;2023-07-20T01:43:35;6.88;;;6.18;;
61527;SDS011;47395;42.032;-8.634;2023-07-20T01:45:37;7.38;;;5.57;;
61527;SDS011;47395;42.032;-8.634;2023-07-20T01:47:40;8.50;;;6.03;;
61527;SDS011;47395;42.032;-8.634;2023-07-20T01:49:41;7.70;;;5.68;;
61527;SDS011;47395;42.032;-8.634;2023-07-20T01:51:41;9.02;;;5.75;;
61527;SDS011;47395;42.032;-8.634;2023-07-20T01:53:43;7.22;;;5.55;;
61527;SDS011;47395;42.032;-8.634;2023-07-20T01:55:44;7.35;;;6.05;;
61527;SDS011;47395;42.032;-8.634;2023-07-20T01:57:47;7.10;;;5.60;;
61527;SDS011;47395;42.032;-8.634;2023-07-20T01:59:48;7.85;;;5.80;;
61527;SDS011;47395;42.032;-8.634;2023-07-20T02:01:49;6.18;;;5.47;;
61527;SDS011;47395;42.032;-8.634;2023-07-20T02:03:50;7.13;;;5.75;;
61527;SDS011;47395;42.032;-8.634;2023-07-20T02:05:51;6.32;;;5.65;;
61527;SDS011;47395;42.032;-8.634;2023-07-20T02:07:52;6.32;;;5.55;;
61527;SDS011;47395;42.032;-8.634;2023-07-20T02:09:54;6.00;;;5.40;;
61527;SDS011;47395;42.032;-8.634;2023-07-20T02:11:54;6.25;;;5.65;;
61527;SDS011;47395;42.032;-8.634;2023-07-20T02:13:55;7.97;;;5.82;;
61527;SDS011;47395;42.032;-8.634;2023-07-20T02:15:57;6.47;;;5.63;;
61527;SDS011;47395;42.032;-8.634;2023-07-20T02:17:57;9.30;;;5.70;;
61527;SDS011;47395;42.032;-8.634;2023-07-20T02:19:58;6.55;;;5.70;;
61527;SDS011;47395;42.032;-8.634;2023-07-20T02:22:00;10.25;;;5.97;;
61527;SDS011;47395;42.032;-8.634;2023-07-20T02:24:01;9.80;;;5.22;;
61527;SDS011;47395;42.032;-8.634;2023-07-20T02:26:06;9.30;;;5.85;;
61527;SDS011;47395;42.032;-8.634;2023-07-20T02:28:07;6.40;;;5.18;;
61527;SDS011;47395;42.032;-8.634;2023-07-20T02:30:09;6.35;;;5.68;;
61527;SDS011;47395;42.032;-8.634;2023-07-20T02:32:10;8.45;;;5.90;;
61527;SDS011;47395;42.032;-8.634;2023-07-20T02:34:11;14.95;;;6.35;;
61527;SDS011;47395;42.032;-8.634;2023-07-20T02:36:12;10.13;;;6.03;;
61527;SDS011;47395;42.032;-8.634;2023-07-20T02:38:14;6.63;;;6.07;;
61527;SDS011;47395;42.032;-8.634;2023-07-20T02:40:15;7.07;;;5.40;;
61527;SDS011;47395;42.032;-8.634;2023-07-20T02:42:16;8.75;;;6.30;;
61527;SDS011;47395;42.032;-8.634;2023-07-20T02:44:17;7.45;;;5.97;;
61527;SDS011;47395;42.032;-8.634;2023-07-20T02:46:19;9.40;;;6.45;;
61527;SDS011;47395;42.032;-8.634;2023-07-20T02:48:21;7.38;;;5.95;;
61527;SDS011;47395;42.032;-8.634;2023-07-20T02:50:22;9.68;;;6.13;;
61527;SDS011;47395;42.032;-8.634;2023-07-20T02:52:23;10.30;;;6.18;;
61527;SDS011;47395;42.032;-8.634;2023-07-20T02:54:24;11.68;;;5.65;;
61527;SDS011;47395;42.032;-8.634;2023-07-20T02:56:26;6.22;;;5.45;;
61527;SDS011;47395;42.032;-8.634;2023-07-20T02:58:27;7.75;;;5.82;;
61527;SDS011;47395;42.032;-8.634;2023-07-20T03:00:30;9.63;;;5.45;;
61527;SDS011;47395;42.032;-8.634;2023-07-20T03:02:32;12.57;;;5.72;;
61527;SDS011;47395;42.032;-8.634;2023-07-20T03:04:32;7.50;;;5.88;;
61527;SDS011;47395;42.032;-8.634;2023-07-20T03:06:35;6.10;;;5.50;;
61527;SDS011;47395;42.032;-8.634;2023-07-20T03:08:37;9.25;;;5.75;;
61527;SDS011;47395;42.032;-8.634;2023-07-20T03:10:41;8.52;;;5.38;;
61527;SDS011;47395;42.032;-8.634;2023-07-20T03:12:42;7.97;;;5.60;;
61527;SDS011;47395;42.032;-8.634;2023-07-20T03:14:43;8.25;;;5.70;;
61527;SDS011;47395;42.032;-8.634;2023-07-20T03:16:44;6.03;;;5.32;;
61527;SDS011;47395;42.032;-8.634;2023-07-20T03:18:47;12.25;;;6.30;;
61527;SDS011;47395;42.032;-8.634;2023-07-20T03:20:51;9.00;;;5.50;;
61527;SDS011;47395;42.032;-8.634;2023-07-20T03:22:52;8.88;;;6.70;;
61527;SDS011;47395;42.032;-8.634;2023-07-20T03:24:53;10.48;;;6.05;;
61527;SDS011;47395;42.032;-8.634;2023-07-20T03:26:56;6.38;;;5.63;;
61527;SDS011;47395;42.032;-8.634;2023-07-20T03:28:57;6.82;;;5.82;;
61527;SDS011;47395;42.032;-8.634;2023-07-20T03:30:58;6.45;;;5.93;;
61527;SDS011;47395;42.032;-8.634;2023-07-20T03:33:00;6.30;;;5.70;;
61527;SDS011;47395;42.032;-8.634;2023-07-20T03:35:01;8.00;;;6.38;;
61527;SDS011;47395;42.032;-8.634;2023-07-20T03:37:04;6.50;;;5.68;;
61527;SDS011;47395;42.032;-8.634;2023-07-20T03:39:06;6.75;;;5.72;;
61527;SDS011;47395;42.032;-8.634;2023-07-20T03:41:09;9.50;;;6.28;;
61527;SDS011;47395;42.032;-8.634;2023-07-20T03:43:12;6.35;;;5.85;;
61527;SDS011;47395;42.032;-8.634;2023-07-20T03:45:14;10.18;;;6.88;;
61527;SDS011;47395;42.032;-8.634;2023-07-20T03:47:16;7.30;;;6.07;;
61527;SDS011;47395;42.032;-8.634;2023-07-20T03:49:17;7.72;;;5.90;;
61527;SDS011;47395;42.032;-8.634;2023-07-20T03:51:18;10.63;;;6.80;;
61527;SDS011;47395;42.032;-8.634;2023-07-20T03:53:19;6.50;;;5.90;;
61527;SDS011;47395;42.032;-8.634;2023-07-20T03:55:20;7.00;;;6.20;;
61527;SDS011;47395;42.032;-8.634;2023-07-20T03:57:23;7.38;;;6.68;;
61527;SDS011;47395;42.032;-8.634;2023-07-20T03:59:24;7.75;;;6.40;;
61527;SDS011;47395;42.032;-8.634;2023-07-20T04:03:49;11.52;;;6.43;;
61527;SDS011;47395;42.032;-8.634;2023-07-20T04:05:50;9.02;;;6.43;;
61527;SDS011;47395;42.032;-8.634;2023-07-20T04:07:51;10.50;;;6.38;;
61527;SDS011;47395;42.032;-8.634;2023-07-20T04:09:52;7.00;;;6.20;;
61527;SDS011;47395;42.032;-8.634;2023-07-20T04:11:54;10.85;;;6.78;;
61527;SDS011;47395;42.032;-8.634;2023-07-20T04:13:55;8.88;;;6.32;;
61527;SDS011;47395;42.032;-8.634;2023-07-20T04:15:56;9.70;;;6.32;;
61527;SDS011;47395;42.032;-8.634;2023-07-20T04:17:57;7.22;;;5.95;;
61527;SDS011;47395;42.032;-8.634;2023-07-20T04:19:58;12.07;;;6.43;;
61527;SDS011;47395;42.032;-8.634;2023-07-20T04:21:59;7.18;;;6.47;;
61527;SDS011;47395;42.032;-8.634;2023-07-20T04:24:00;6.75;;;5.97;;
61527;SDS011;47395;42.032;-8.634;2023-07-20T04:26:01;17.55;;;6.63;;
61527;SDS011;47395;42.032;-8.634;2023-07-20T04:28:02;12.57;;;7.07;;
61527;SDS011;47395;42.032;-8.634;2023-07-20T04:30:04;9.73;;;6.50;;
61527;SDS011;47395;42.032;-8.634;2023-07-20T04:32:07;6.70;;;6.20;;
61527;SDS011;47395;42.032;-8.634;2023-07-20T04:34:10;7.82;;;6.35;;
61527;SDS011;47395;42.032;-8.634;2023-07-20T04:36:11;10.73;;;7.10;;
61527;SDS011;47395;42.032;-8.634;2023-07-20T04:38:13;11.57;;;6.53;;
61527;SDS011;47395;42.032;-8.634;2023-07-20T04:40:16;6.45;;;5.82;;
61527;SDS011;47395;42.032;-8.634;2023-07-20T04:42:17;9.73;;;5.97;;
61527;SDS011;47395;42.032;-8.634;2023-07-20T04:44:18;7.15;;;6.50;;
61527;SDS011;47395;42.032;-8.634;2023-07-20T04:46:19;7.03;;;6.30;;
61527;SDS011;47395;42.032;-8.634;2023-07-20T04:48:22;15.90;;;6.50;;
61527;SDS011;47395;42.032;-8.634;2023-07-20T04:50:25;11.30;;;7.45;;
61527;SDS011;47395;42.032;-8.634;2023-07-20T04:52:26;7.95;;;6.90;;
61527;SDS011;47395;42.032;-8.634;2023-07-20T04:54:27;9.60;;;6.03;;
61527;SDS011;47395;42.032;-8.634;2023-07-20T04:56:28;9.73;;;7.57;;
61527;SDS011;47395;42.032;-8.634;2023-07-20T04:58:31;8.68;;;6.15;;
61527;SDS011;47395;42.032;-8.634;2023-07-20T05:00:32;8.73;;;6.57;;
61527;SDS011;47395;42.032;-8.634;2023-07-20T05:02:34;7.63;;;6.60;;
61527;SDS011;47395;42.032;-8.634;2023-07-20T05:04:35;8.57;;;6.30;;
61527;SDS011;47395;42.032;-8.634;2023-07-20T05:06:36;7.93;;;6.80;;
61527;SDS011;47395;42.032;-8.634;2023-07-20T05:08:39;7.75;;;7.00;;
61527;SDS011;47395;42.032;-8.634;2023-07-20T05:10:40;9.32;;;7.13;;
61527;SDS011;47395;42.032;-8.634;2023-07-20T05:12:41;7.90;;;7.15;;
61527;SDS011;47395;42.032;-8.634;2023-07-20T05:14:42;8.35;;;7.05;;
61527;SDS011;47395;42.032;-8.634;2023-07-20T05:16:43;11.32;;;6.80;;
61527;SDS011;47395;42.032;-8.634;2023-07-20T05:18:44;9.60;;;7.72;;
61527;SDS011;47395;42.032;-8.634;2023-07-20T05:20:46;7.70;;;6.95;;
61527;SDS011;47395;42.032;-8.634;2023-07-20T05:22:48;9.30;;;6.95;;
61527;SDS011;47395;42.032;-8.634;2023-07-20T05:24:50;16.27;;;7.88;;
61527;SDS011;47395;42.032;-8.634;2023-07-20T05:26:51;12.65;;;7.80;;
61527;SDS011;47395;42.032;-8.634;2023-07-20T05:28:52;7.97;;;6.90;;
61527;SDS011;47395;42.032;-8.634;2023-07-20T05:30:52;9.68;;;6.78;;
61527;SDS011;47395;42.032;-8.634;2023-07-20T05:32:53;13.07;;;7.05;;
61527;SDS011;47395;42.032;-8.634;2023-07-20T05:34:54;10.38;;;7.22;;
61527;SDS011;47395;42.032;-8.634;2023-07-20T05:36:55;7.45;;;6.63;;
61527;SDS011;47395;42.032;-8.634;2023-07-20T05:38:56;9.10;;;6.28;;
61527;SDS011;47395;42.032;-8.634;2023-07-20T05:40:59;7.38;;;6.68;;
61527;SDS011;47395;42.032;-8.634;2023-07-20T05:43:03;8.13;;;6.35;;
61527;SDS011;47395;42.032;-8.634;2023-07-20T05:45:05;10.65;;;6.15;;
61527;SDS011;47395;42.032;-8.634;2023-07-20T05:47:06;6.75;;;5.72;;
61527;SDS011;47395;42.032;-8.634;2023-07-20T05:49:07;9.57;;;6.88;;
61527;SDS011;47395;42.032;-8.634;2023-07-20T05:51:09;7.70;;;6.90;;
61527;SDS011;47395;42.032;-8.634;2023-07-20T05:53:10;12.32;;;7.15;;
61527;SDS011;47395;42.032;-8.634;2023-07-20T05:55:11;7.72;;;6.32;;
61527;SDS011;47395;42.032;-8.634;2023-07-20T05:57:12;14.02;;;7.45;;
61527;SDS011;47395;42.032;-8.634;2023-07-20T05:59:13;8.40;;;6.72;;
61527;SDS011;47395;42.032;-8.634;2023-07-20T06:01:14;10.48;;;6.80;;
61527;SDS011;47395;42.032;-8.634;2023-07-20T06:03:15;8.55;;;6.97;;
61527;SDS011;47395;42.032;-8.634;2023-07-20T06:05:19;7.95;;;6.30;;
61527;SDS011;47395;42.032;-8.634;2023-07-20T06:07:21;13.00;;;6.78;;
61527;SDS011;47395;42.032;-8.634;2023-07-20T06:09:22;18.45;;;6.93;;
61527;SDS011;47395;42.032;-8.634;2023-07-20T06:11:23;15.38;;;6.75;;
61527;SDS011;47395;42.032;-8.634;2023-07-20T06:13:25;7.40;;;6.53;;
61527;SDS011;47395;42.032;-8.634;2023-07-20T06:15:26;8.95;;;6.78;;
61527;SDS011;47395;42.032;-8.634;2023-07-20T06:17:29;6.95;;;5.95;;
61527;SDS011;47395;42.032;-8.634;2023-07-20T06:19:31;10.43;;;6.53;;
61527;SDS011;47395;42.032;-8.634;2023-07-20T06:21:34;11.57;;;6.47;;
61527;SDS011;47395;42.032;-8.634;2023-07-20T06:23:35;17.55;;;6.57;;
61527;SDS011;47395;42.032;-8.634;2023-07-20T06:25:36;9.77;;;6.20;;
61527;SDS011;47395;42.032;-8.634;2023-07-20T06:27:37;11.38;;;6.28;;
61527;SDS011;47395;42.032;-8.634;2023-07-20T06:29:38;11.77;;;5.95;;
61527;SDS011;47395;42.032;-8.634;2023-07-20T06:31:40;12.07;;;6.55;;
61527;SDS011;47395;42.032;-8.634;2023-07-20T06:33:41;10.85;;;6.32;;
61527;SDS011;47395;42.032;-8.634;2023-07-20T06:35:41;9.23;;;6.03;;
61527;SDS011;47395;42.032;-8.634;2023-07-20T06:37:45;9.75;;;7.03;;
61527;SDS011;47395;42.032;-8.634;2023-07-20T06:39:46;10.38;;;6.40;;
61527;SDS011;47395;42.032;-8.634;2023-07-20T06:41:47;6.32;;;5.70;;
61527;SDS011;47395;42.032;-8.634;2023-07-20T06:43:48;8.15;;;5.72;;
61527;SDS011;47395;42.032;-8.634;2023-07-20T06:45:53;8.13;;;5.70;;
61527;SDS011;47395;42.032;-8.634;2023-07-20T06:47:54;13.63;;;6.00;;
61527;SDS011;47395;42.032;-8.634;2023-07-20T06:49:55;12.13;;;6.90;;
61527;SDS011;47395;42.032;-8.634;2023-07-20T06:51:56;12.73;;;6.40;;
61527;SDS011;47395;42.032;-8.634;2023-07-20T06:53:57;12.27;;;6.38;;
61527;SDS011;47395;42.032;-8.634;2023-07-20T06:55:58;14.98;;;6.22;;
61527;SDS011;47395;42.032;-8.634;2023-07-20T06:57:59;15.07;;;6.53;;
61527;SDS011;47395;42.032;-8.634;2023-07-20T07:00:00;11.32;;;6.20;;
61527;SDS011;47395;42.032;-8.634;2023-07-20T07:02:01;12.55;;;6.00;;
61527;SDS011;47395;42.032;-8.634;2023-07-20T07:04:02;8.07;;;5.50;;
61527;SDS011;47395;42.032;-8.634;2023-07-20T07:06:03;10.63;;;6.18;;
61527;SDS011;47395;42.032;-8.634;2023-07-20T07:08:04;21.17;;;6.97;;
61527;SDS011;47395;42.032;-8.634;2023-07-20T07:10:06;10.63;;;6.35;;
61527;SDS011;47395;42.032;-8.634;2023-07-20T07:12:07;8.75;;;6.13;;
61527;SDS011;47395;42.032;-8.634;2023-07-20T07:14:08;7.50;;;5.68;;
61527;SDS011;47395;42.032;-8.634;2023-07-20T07:16:09;10.02;;;5.35;;
61527;SDS011;47395;42.032;-8.634;2023-07-20T07:18:10;8.30;;;5.50;;
61527;SDS011;47395;42.032;-8.634;2023-07-20T07:20:11;11.75;;;5.70;;
61527;SDS011;47395;42.032;-8.634;2023-07-20T07:22:12;5.72;;;5.03;;
61527;SDS011;47395;42.032;-8.634;2023-07-20T07:24:14;11.80;;;5.35;;
61527;SDS011;47395;42.032;-8.634;2023-07-20T07:26:15;7.30;;;5.30;;
61527;SDS011;47395;42.032;-8.634;2023-07-20T07:28:15;7.65;;;5.30;;
61527;SDS011;47395;42.032;-8.634;2023-07-20T07:30:16;6.80;;;5.60;;
61527;SDS011;47395;42.032;-8.634;2023-07-20T07:32:17;6.00;;;5.03;;
61527;SDS011;47395;42.032;-8.634;2023-07-20T07:34:18;7.05;;;4.72;;
61527;SDS011;47395;42.032;-8.634;2023-07-20T07:36:19;5.75;;;5.00;;
61527;SDS011;47395;42.032;-8.634;2023-07-20T07:38:20;6.78;;;5.05;;
61527;SDS011;47395;42.032;-8.634;2023-07-20T07:40:20;5.75;;;5.07;;
61527;SDS011;47395;42.032;-8.634;2023-07-20T07:42:21;15.02;;;5.20;;
61527;SDS011;47395;42.032;-8.634;2023-07-20T07:44:22;7.72;;;4.70;;
61527;SDS011;47395;42.032;-8.634;2023-07-20T07:46:24;5.15;;;4.20;;
61527;SDS011;47395;42.032;-8.634;2023-07-20T07:48:24;4.47;;;4.07;;
61527;SDS011;47395;42.032;-8.634;2023-07-20T07:50:25;4.60;;;4.20;;
61527;SDS011;47395;42.032;-8.634;2023-07-20T07:52:27;6.63;;;3.40;;
61527;SDS011;47395;42.032;-8.634;2023-07-20T07:54:28;6.47;;;4.30;;
61527;SDS011;47395;42.032;-8.634;2023-07-20T07:56:29;7.10;;;3.72;;
61527;SDS011;47395;42.032;-8.634;2023-07-20T07:58:30;5.22;;;4.13;;
61527;SDS011;47395;42.032;-8.634;2023-07-20T08:00:31;5.07;;;3.97;;
61527;SDS011;47395;42.032;-8.634;2023-07-20T08:02:32;4.35;;;3.95;;
61527;SDS011;47395;42.032;-8.634;2023-07-20T08:04:33;6.45;;;3.75;;
61527;SDS011;47395;42.032;-8.634;2023-07-20T08:06:34;4.22;;;3.88;;
61527;SDS011;47395;42.032;-8.634;2023-07-20T08:08:35;7.18;;;4.20;;
61527;SDS011;47395;42.032;-8.634;2023-07-20T08:10:36;4.43;;;3.83;;
61527;SDS011;47395;42.032;-8.634;2023-07-20T08:12:36;4.47;;;4.15;;
61527;SDS011;47395;42.032;-8.634;2023-07-20T08:14:37;3.88;;;3.50;;
61527;SDS011;47395;42.032;-8.634;2023-07-20T08:16:40;4.03;;;3.72;;
61527;SDS011;47395;42.032;-8.634;2023-07-20T08:18:41;4.07;;;3.78;;
61527;SDS011;47395;42.032;-8.634;2023-07-20T08:20:45;4.97;;;3.97;;
61527;SDS011;47395;42.032;-8.634;2023-07-20T08:22:47;4.03;;;3.75;;
61527;SDS011;47395;42.032;-8.634;2023-07-20T08:24:49;4.20;;;3.90;;
61527;SDS011;47395;42.032;-8.634;2023-07-20T08:26:50;4.40;;;4.07;;
61527;SDS011;47395;42.032;-8.634;2023-07-20T08:28:51;3.95;;;3.65;;
61527;SDS011;47395;42.032;-8.634;2023-07-20T08:30:52;4.00;;;3.70;;
61527;SDS011;47395;42.032;-8.634;2023-07-20T08:32:53;3.80;;;3.53;;
61527;SDS011;47395;42.032;-8.634;2023-07-20T08:34:55;4.65;;;4.25;;
61527;SDS011;47395;42.032;-8.634;2023-07-20T08:36:57;4.53;;;4.13;;
61527;SDS011;47395;42.032;-8.634;2023-07-20T08:38:59;4.18;;;3.50;;
61527;SDS011;47395;42.032;-8.634;2023-07-20T08:41:02;6.40;;;4.20;;
61527;SDS011;47395;42.032;-8.634;2023-07-20T08:43:03;4.28;;;3.88;;
61527;SDS011;47395;42.032;-8.634;2023-07-20T08:45:06;3.78;;;3.47;;
61527;SDS011;47395;42.032;-8.634;2023-07-20T08:47:09;10.77;;;3.90;;
61527;SDS011;47395;42.032;-8.634;2023-07-20T08:49:12;6.80;;;3.97;;
61527;SDS011;47395;42.032;-8.634;2023-07-20T08:51:14;4.07;;;3.67;;
61527;SDS011;47395;42.032;-8.634;2023-07-20T08:53:16;4.40;;;4.00;;
61527;SDS011;47395;42.032;-8.634;2023-07-20T08:55:17;4.82;;;3.85;;
61527;SDS011;47395;42.032;-8.634;2023-07-20T08:57:19;4.60;;;4.00;;
61527;SDS011;47395;42.032;-8.634;2023-07-20T08:59:22;5.35;;;3.42;;
61527;SDS011;47395;42.032;-8.634;2023-07-20T09:01:24;4.45;;;3.60;;
61527;SDS011;47395;42.032;-8.634;2023-07-20T09:03:27;4.18;;;3.55;;
61527;SDS011;47395;42.032;-8.634;2023-07-20T09:05:28;3.92;;;3.67;;
61527;SDS011;47395;42.032;-8.634;2023-07-20T09:07:29;3.97;;;3.63;;
61527;SDS011;47395;42.032;-8.634;2023-07-20T09:09:30;4.60;;;3.28;;
61527;SDS011;47395;42.032;-8.634;2023-07-20T09:11:31;3.90;;;3.70;;
61527;SDS011;47395;42.032;-8.634;2023-07-20T09:13:32;5.15;;;3.67;;
61527;SDS011;47395;42.032;-8.634;2023-07-20T09:15:34;5.18;;;3.17;;
61527;SDS011;47395;42.032;-8.634;2023-07-20T09:17:35;4.32;;;3.60;;
61527;SDS011;47395;42.032;-8.634;2023-07-20T09:19:36;6.45;;;3.75;;
61527;SDS011;47395;42.032;-8.634;2023-07-20T09:21:38;9.73;;;3.90;;
61527;SDS011;47395;42.032;-8.634;2023-07-20T09:23:39;6.93;;;4.03;;
61527;SDS011;47395;42.032;-8.634;2023-07-20T09:25:40;4.47;;;3.97;;
61527;SDS011;47395;42.032;-8.634;2023-07-20T09:27:42;3.78;;;3.45;;
61527;SDS011;47395;42.032;-8.634;2023-07-20T09:29:47;4.47;;;3.72;;
61527;SDS011;47395;42.032;-8.634;2023-07-20T09:32:04;5.20;;;4.80;;
61527;SDS011;47395;42.032;-8.634;2023-07-20T09:34:05;4.43;;;4.00;;
61527;SDS011;47395;42.032;-8.634;2023-07-20T09:36:09;5.15;;;4.18;;
61527;SDS011;47395;42.032;-8.634;2023-07-20T09:38:12;3.97;;;3.67;;
61527;SDS011;47395;42.032;-8.634;2023-07-20T09:40:15;4.32;;;3.90;;
61527;SDS011;47395;42.032;-8.634;2023-07-20T09:42:17;9.60;;;3.90;;
61527;SDS011;47395;42.032;-8.634;2023-07-20T09:44:19;4.82;;;4.07;;
61527;SDS011;47395;42.032;-8.634;2023-07-20T09:46:20;4.47;;;4.18;;
61527;SDS011;47395;42.032;-8.634;2023-07-20T09:48:23;7.38;;;4.57;;
61527;SDS011;47395;42.032;-8.634;2023-07-20T09:50:25;7.72;;;5.20;;
61527;SDS011;47395;42.032;-8.634;2023-07-20T09:52:26;4.00;;;3.70;;
61527;SDS011;47395;42.032;-8.634;2023-07-20T09:54:27;4.38;;;4.07;;
61527;SDS011;47395;42.032;-8.634;2023-07-20T09:56:29;6.88;;;4.80;;
61527;SDS011;47395;42.032;-8.634;2023-07-20T09:58:30;7.25;;;4.43;;
61527;SDS011;47395;42.032;-8.634;2023-07-20T10:00:36;4.53;;;4.10;;
61527;SDS011;47395;42.032;-8.634;2023-07-20T10:02:41;12.57;;;11.20;;
61527;SDS011;47395;42.032;-8.634;2023-07-20T10:04:44;11.70;;;6.55;;
61527;SDS011;47395;42.032;-8.634;2023-07-20T10:06:46;16.73;;;15.02;;
61527;SDS011;47395;42.032;-8.634;2023-07-20T10:08:49;7.30;;;6.20;;
61527;SDS011;47395;42.032;-8.634;2023-07-20T10:10:53;4.38;;;4.03;;
61527;SDS011;47395;42.032;-8.634;2023-07-20T10:12:54;4.55;;;4.15;;
61527;SDS011;47395;42.032;-8.634;2023-07-20T10:15:10;4.80;;;4.40;;
61527;SDS011;47395;42.032;-8.634;2023-07-20T10:17:28;3.95;;;3.75;;
61527;SDS011;47395;42.032;-8.634;2023-07-20T10:21:48;4.13;;;3.78;;
61527;SDS011;47395;42.032;-8.634;2023-07-20T10:23:52;3.95;;;3.50;;
61527;SDS011;47395;42.032;-8.634;2023-07-20T10:25:54;4.63;;;4.28;;
61527;SDS011;47395;42.032;-8.634;2023-07-20T10:27:56;3.97;;;3.78;;
61527;SDS011;47395;42.032;-8.634;2023-07-20T10:29:58;4.15;;;3.95;;
61527;SDS011;47395;42.032;-8.634;2023-07-20T10:32:01;4.53;;;4.13;;
61527;SDS011;47395;42.032;-8.634;2023-07-20T10:34:03;4.18;;;3.88;;
61527;SDS011;47395;42.032;-8.634;2023-07-20T10:36:05;4.07;;;3.78;;
61527;SDS011;47395;42.032;-8.634;2023-07-20T10:38:06;4.50;;;4.10;;
61527;SDS011;47395;42.032;-8.634;2023-07-20T10:42:34;4.57;;;4.28;;
61527;SDS011;47395;42.032;-8.634;2023-07-20T10:44:38;5.25;;;4.32;;
61527;SDS011;47395;42.032;-8.634;2023-07-20T10:46:43;5.22;;;4.80;;
61527;SDS011;47395;42.032;-8.634;2023-07-20T10:49:00;6.18;;;5.18;;
61527;SDS011;47395;42.032;-8.634;2023-07-20T10:51:09;4.68;;;4.30;;
61527;SDS011;47395;42.032;-8.634;2023-07-20T10:53:13;4.30;;;4.10;;
61527;SDS011;47395;42.032;-8.634;2023-07-20T10:55:16;6.13;;;5.45;;
61527;SDS011;47395;42.032;-8.634;2023-07-20T10:57:21;5.85;;;5.28;;
61527;SDS011;47395;42.032;-8.634;2023-07-20T11:01:40;6.20;;;5.70;;
61527;SDS011;47395;42.032;-8.634;2023-07-20T11:03:48;5.18;;;4.65;;
61527;SDS011;47395;42.032;-8.634;2023-07-20T11:05:53;5.50;;;5.00;;
61527;SDS011;47395;42.032;-8.634;2023-07-20T11:07:54;7.82;;;4.57;;
61527;SDS011;47395;42.032;-8.634;2023-07-20T11:09:55;7.05;;;4.57;;
61527;SDS011;47395;42.032;-8.634;2023-07-20T11:12:17;6.47;;;5.43;;
61527;SDS011;47395;42.032;-8.634;2023-07-20T11:14:22;5.05;;;4.65;;
61527;SDS011;47395;42.032;-8.634;2023-07-20T11:16:33;5.35;;;4.20;;
61527;SDS011;47395;42.032;-8.634;2023-07-20T11:18:36;6.80;;;5.47;;
61527;SDS011;47395;42.032;-8.634;2023-07-20T11:20:41;5.03;;;4.70;;
61527;SDS011;47395;42.032;-8.634;2023-07-20T11:22:42;5.40;;;4.22;;
61527;SDS011;47395;42.032;-8.634;2023-07-20T11:24:43;4.82;;;4.47;;
61527;SDS011;47395;42.032;-8.634;2023-07-20T11:26:47;4.63;;;4.03;;
61527;SDS011;47395;42.032;-8.634;2023-07-20T11:28:49;4.20;;;3.78;;
61527;SDS011;47395;42.032;-8.634;2023-07-20T11:30:52;4.20;;;3.63;;
61527;SDS011;47395;42.032;-8.634;2023-07-20T11:32:56;4.10;;;3.80;;
61527;SDS011;47395;42.032;-8.634;2023-07-20T11:34:58;4.00;;;3.70;;
61527;SDS011;47395;42.032;-8.634;2023-07-20T11:36:59;3.90;;;3.63;;
61527;SDS011;47395;42.032;-8.634;2023-07-20T11:39:00;3.78;;;3.55;;
61527;SDS011;47395;42.032;-8.634;2023-07-20T11:41:04;3.72;;;3.53;;
61527;SDS011;47395;42.032;-8.634;2023-07-20T11:43:05;8.98;;;4.57;;
61527;SDS011;47395;42.032;-8.634;2023-07-20T11:45:07;4.10;;;3.80;;
61527;SDS011;47395;42.032;-8.634;2023-07-20T11:47:10;5.82;;;3.53;;
61527;SDS011;47395;42.032;-8.634;2023-07-20T11:49:14;3.90;;;3.70;;
61527;SDS011;47395;42.032;-8.634;2023-07-20T11:51:16;4.55;;;4.15;;
61527;SDS011;47395;42.032;-8.634;2023-07-20T11:53:17;4.03;;;3.60;;
61527;SDS011;47395;42.032;-8.634;2023-07-20T11:55:19;3.70;;;3.50;;
61527;SDS011;47395;42.032;-8.634;2023-07-20T11:57:20;5.03;;;3.55;;
61527;SDS011;47395;42.032;-8.634;2023-07-20T11:59:21;7.03;;;3.65;;
61527;SDS011;47395;42.032;-8.634;2023-07-20T12:01:23;4.97;;;3.50;;
61527;SDS011;47395;42.032;-8.634;2023-07-20T12:03:24;5.90;;;3.83;;
61527;SDS011;47395;42.032;-8.634;2023-07-20T12:05:25;3.80;;;3.55;;
61527;SDS011;47395;42.032;-8.634;2023-07-20T12:07:27;3.88;;;3.63;;
61527;SDS011;47395;42.032;-8.634;2023-07-20T12:09:29;7.85;;;3.55;;
61527;SDS011;47395;42.032;-8.634;2023-07-20T12:11:36;3.88;;;3.58;;
61527;SDS011;47395;42.032;-8.634;2023-07-20T12:13:42;3.83;;;3.50;;
61527;SDS011;47395;42.032;-8.634;2023-07-20T12:15:44;4.47;;;3.90;;
61527;SDS011;47395;42.032;-8.634;2023-07-20T12:17:51;4.40;;;3.97;;